| time (UTC) | temp C | wind direction | speed KPH | gust KPH | rain 1hr cm | rain 24hr cm | rain mn cm | humidity % | barometer mb |
| 20260505070020 | 3 | 340 | 0.0 | 0.0 | 0.00 | 0.71 | 0.00 | 93 | 1009.1 |
| 20260505064523 | 3 | 340 | 0.0 | 0.0 | 0.00 | 0.71 | 0.00 | 93 | 1009.1 |
| 20260505063029 | 3 | 340 | 0.0 | 0.0 | 0.00 | 0.71 | 0.00 | 92 | 1009.1 |
| 20260505061521 | 2 | 340 | 0.0 | 0.0 | 0.00 | 0.71 | 0.00 | 92 | 1009.1 |
| 20260505060013 | 3 | 340 | 0.0 | 0.0 | 0.00 | 0.71 | 0.71 | 92 | 1009.2 |
| 20260505054514 | 3 | 340 | 0.0 | 1.6 | 0.00 | 0.71 | 0.71 | 92 | 1009.2 |
| 20260505053012 | 3 | 340 | 0.0 | 0.0 | 0.00 | 0.71 | 0.71 | 91 | 1009.0 |
| 20260505051517 | 3 | 340 | 0.0 | 0.0 | 0.00 | 0.71 | 0.71 | 91 | 1008.9 |
| 20260505041508 | 3 | 340 | 0.0 | 0.0 | 0.03 | 0.71 | 0.71 | 91 | 1008.8 |
| 20260505040008 | 3 | 340 | 0.0 | 0.0 | 0.00 | 0.69 | 0.69 | 91 | 1008.8 |
| 20260505034507 | 3 | 340 | 0.0 | 0.0 | 0.00 | 0.69 | 0.69 | 91 | 1008.7 |
| 20260505033007 | 3 | 340 | 0.0 | 0.0 | 0.00 | 0.69 | 0.69 | 91 | 1008.8 |
| 20260505031518 | 3 | 340 | 0.0 | 4.8 | 0.00 | 0.69 | 0.69 | 91 | 1008.5 |
| 20260505030005 | 3 | 304 | 0.0 | 0.0 | 0.00 | 0.69 | 0.69 | 90 | 1008.3 |
| 20260505024505 | 3 | 309 | 0.0 | 3.2 | 0.00 | 0.69 | 0.69 | 90 | 1008.0 |
| 20260505023004 | 3 | 309 | 0.0 | 3.2 | 0.05 | 0.69 | 0.69 | 90 | 1007.9 |
| 20260505021504 | 3 | 309 | 0.0 | 4.8 | 0.05 | 0.69 | 0.69 | 89 | 1007.7 |
| 20260505020003 | 4 | 116 | 0.0 | 4.8 | 0.10 | 0.69 | 0.69 | 90 | 1007.6 |
| 20260505014509 | 4 | 348 | 0.0 | 1.6 | 0.18 | 0.69 | 0.69 | 90 | 1007.8 |
| 20260505013002 | 4 | 348 | 0.0 | 0.0 | 0.20 | 0.64 | 0.64 | 89 | 1008.2 |
| 20260505011500 | 4 | 348 | 0.0 | 0.0 | 0.28 | 0.64 | 0.64 | 89 | 1008.2 |
| 20260505010114 | 4 | 348 | 0.0 | 1.6 | 0.33 | 0.58 | 0.58 | 88 | 1008.2 |
| 20260505004600 | 4 | 348 | 1.6 | 4.8 | 0.36 | 0.51 | 0.51 | 88 | 1008.1 |
| 20260505003119 | 5 | 304 | 0.0 | 1.6 | 0.33 | 0.43 | 0.43 | 87 | 1008.1 |
| 20260505001601 | 5 | 304 | 0.0 | 3.2 | 0.28 | 0.36 | 0.36 | 85 | 1007.9 |
| 20260504234556 | 6 | 313 | 1.6 | 8.0 | 0.08 | 0.15 | 0.15 | 75 | 1007.5 |
| 20260504233102 | 8 | 302 | 6.4 | 14.5 | 0.00 | 0.08 | 0.08 | 66 | 1007.1 |
| 20260504231554 | 9 | 154 | 1.6 | 6.4 | 0.00 | 0.08 | 0.08 | 62 | 1006.3 |
| 20260504230112 | 10 | 157 | 1.6 | 11.3 | 0.00 | 0.08 | 0.08 | 59 | 1006.1 |
| 20260504224607 | 10 | 132 | 3.2 | 14.5 | 0.00 | 0.08 | 0.08 | 55 | 1005.9 |
| 20260504223052 | 10 | 147 | 3.2 | 14.5 | 0.00 | 0.08 | 0.08 | 52 | 1005.2 |
| 20260504221551 | 11 | 131 | 3.2 | 12.9 | 0.00 | 0.08 | 0.08 | 51 | 1005.0 |
| 20260504220057 | 12 | 106 | 4.8 | 12.9 | 0.00 | 0.08 | 0.08 | 46 | 1004.8 |
| 20260504214550 | 12 | 155 | 1.6 | 17.7 | 0.00 | 0.08 | 0.08 | 46 | 1004.7 |
| 20260504213047 | 12 | 119 | 3.2 | 9.7 | 0.00 | 0.08 | 0.08 | 50 | 1004.6 |
| 20260504211544 | 11 | 154 | 3.2 | 16.1 | 0.00 | 0.08 | 0.08 | 54 | 1004.8 |
| 20260504210056 | 10 | 119 | 1.6 | 6.4 | 0.00 | 0.08 | 0.08 | 60 | 1005.0 |
| 20260504204548 | 10 | 169 | 0.0 | 1.6 | 0.00 | 0.08 | 0.08 | 68 | 1005.4 |
| 20260504203044 | 10 | 132 | 1.6 | 8.0 | 0.03 | 0.08 | 0.08 | 56 | 1005.7 |
| 20260504201546 | 9 | 13 | 1.6 | 8.0 | 0.05 | 0.08 | 0.08 | 64 | 1005.5 |
| 20260504200050 | 8 | 286 | 0.0 | 1.6 | 0.08 | 0.08 | 0.08 | 75 | 1005.7 |
| 20260504194538 | 8 | 300 | 3.2 | 11.3 | 0.08 | 0.08 | 0.08 | 79 | 1006.0 |
| 20260504193041 | 9 | 252 | 0.0 | 0.0 | 0.05 | 0.05 | 0.05 | 73 | 1006.1 |
| 20260504191537 | 9 | 252 | 0.0 | 3.2 | 0.03 | 0.03 | 0.03 | 68 | 1006.2 |
| 20260504190034 | 10 | 227 | 0.0 | 4.8 | 0.00 | 0.00 | 0.00 | 58 | 1006.0 |
| 20260504184537 | 9 | 228 | 0.0 | 1.6 | 0.00 | 0.00 | 0.00 | 62 | 1006.0 |
| 20260504183036 | 10 | 306 | 1.6 | 9.7 | 0.00 | 0.00 | 0.00 | 59 | 1006.2 |
| 20260504181531 | 11 | 303 | 6.4 | 32.2 | 0.00 | 0.00 | 0.00 | 43 | 1006.7 |
| 20260504180028 | 13 | 284 | 8.0 | 24.1 | 0.00 | 0.00 | 0.00 | 37 | 1006.2 |
| 20260504174527 | 13 | 265 | 4.8 | 12.9 | 0.00 | 0.00 | 0.00 | 37 | 1006.1 |
| 20260504173025 | 12 | 223 | 3.2 | 19.3 | 0.00 | 0.00 | 0.00 | 37 | 1006.3 |
| 20260504171523 | 12 | 246 | 1.6 | 20.9 | 0.00 | 0.00 | 0.00 | 38 | 1006.5 |
| 20260504081503 | 2 | 313 | 0.0 | 4.8 | 0.00 | 0.00 | 0.00 | 43 | 1008.0 |